x

Boston 16 Nm East Of Boston, Ma (44013) Wave Buoy

12:50 - Mon 25th Sep 2017 All times are EDT. -4 hours from GMT.

  • Sig Wave height 2.3ft
  • Swell Direction
  • Peak Period 12s
  • Average Period 7s
  • Wind
    7mph, 9mph gusts
  • Sea Temp 63°f
  • Air Temp 64°f
  • Sea Pressure 1016.7mb
  • Boston 16 Nm East Of Boston, Ma
  • Boston 16 Nm East Of Boston, Ma

More Historic Weather Station data

Upgrade to MSW Pro to gain access to the past 30 days of data for over 8000 Wavebouys and Weather Stations around the globe.

Join

Comparision Forecast

View Surf forecast
   
lun. 09/25 12:50 2.5ft 12s 7s 7 9 mph 1016.7mb 63f 64f
dim. 09/24 11:50 2.5ft 12s 7s 7 7 mph 1017.1mb 63f 64f
10:50 2.5ft 11s 7s 9 9 mph 1017.2mb 63f 65f
9:50 2.5ft 7s 7s 7 9 mph 1017.1mb 64f 65f
8:50 2.5ft 12s 7s 7 7 mph 1017mb 64f 64f
7:50 2ft 12s 7s 7 7 mph 1016.5mb 64f 65f
6:50 2.5ft 12s 8s 7 9 mph 1016.3mb 64f 66f
5:50 2.5ft 11s 7s 7 7 mph 1016.1mb 64f 67f
4:50 2.5ft 13s 7s 7 7 mph 1016.1mb 65f 67f
3:50 2.5ft 11s 7s 4 7 mph 1016.4mb 65f 67f
2:50 2.5ft 11s 7s 4 7 mph 1016.9mb 65f 67f
1:50 2.5ft 11s 6s 7 7 mph 1017.1mb 65f 67f
12:50 2.5ft 11s 6s 2 2 mph 1017.4mb 66f 68f
11:50 2.5ft 10s 6s 4 4 mph 1017.7mb 64f 67f
10:50 3ft 10s 6s 2 4 mph 1017.8mb 63f 65f
9:50 2.5ft 7s 6s 4 7 mph 1018.2mb 62f 63f
8:50 2.5ft 10s 7s 7 7 mph 1018mb 61f 63f
7:50 2.5ft 7s 7s 4 4 mph 1017.7mb 61f 62f
6:50 2.5ft 10s 7s 4 4 mph 1017.7mb 61f 62f
5:50 2.5ft 11s 7s  -  2 mph 1017.1mb 61f 61f
4:50 2.5ft 8s 7s 2 4 mph 1016.6mb 61f 61f
3:50 2.5ft 11s 6s  -  2 mph 1016.5mb 61f 60f
2:50 2.5ft 7s 6s  -  2 mph 1016.1mb 61f 60f
1:50 2.5ft 7s 6s 4 4 mph 1016.3mb 61f 60f
12:50 2.5ft 7s 6s 2 4 mph 1016.5mb 61f 59f
sam. 09/23 11:50 3ft 8s 6s 2 4 mph 1016.9mb 61f 60f
10:50 3ft 8s 6s 2 4 mph 1017.1mb 60f 59f
9:50 3.5ft 7s 6s 4 4 mph 1017.1mb 59f 59f
8:50 3.5ft 8s 6s 2 4 mph 1017.1mb 60f 59f
7:50 3.5ft 8s 6s 2 4 mph 1016.7mb 60f 59f
6:50 3.5ft 8s 6s 2 2 mph 1016.4mb 60f 60f
5:50 3.5ft 8s 5s 4 4 mph 1016.1mb 60f 60f
4:50 3.5ft 8s 5s 7 9 mph 1016.1mb 60f 61f
3:50 4ft 8s 6s 4 7 mph 1016.2mb 60f 61f
2:50 4.5ft 8s 5s 9 11 mph 1016.3mb 59f 61f
1:50 5ft 8s 5s 11 13 mph 1016.2mb 59f 61f
12:50 5ft 8s 6s 16 18 mph 1016.3mb 60f 61f
11:50 5.5ft 8s 6s 13 16 mph 1016.1mb 60f 61f
10:50 5.5ft 8s 6s 16 20 mph 1016.6mb 60f 61f
9:50 6ft 8s 6s 22 27 mph 1016.2mb 60f 61f
8:50 5.5ft 8s 6s 16 18 mph 1015.9mb 58f 60f
7:50 6ft 9s 6s 13 16 mph 1015.6mb 58f 60f
6:50 6.5ft 9s 6s 16 18 mph 1015.2mb 58f 60f
5:50 6.5ft 9s 6s 18 20 mph 1015mb 58f 59f
4:50 6ft 9s 5s 20 25 mph 1014.7mb 58f 59f
3:50 7ft 9s 6s 22 25 mph 1014.6mb 58f 59f
2:50 7ft 8s 6s 20 25 mph 1014.7mb 58f 60f
1:50 8.5ft 8s 6s 20 22 mph 1014.4mb 58f 59f
12:50 9.5ft 8s 6s 20 25 mph 1014.6mb 58f 59f
ven. 09/22 11:50 9ft 9s 6s 22 25 mph 1014.7mb 58f 60f
10:50 10ft 9s 7s 22 27 mph 1014.9mb 58f 60f
9:50 10ft 8s 7s 22 27 mph 1014.7mb 58f 60f
8:50 11.5ft 10s 7s 25 29 mph 1014.5mb 58f 60f
7:50 11ft 10s 7s 25 29 mph 1014.7mb 58f 59f
6:50 12ft 8s 7s 27 34 mph 1014.3mb 58f 58f
5:50 12ft 10s 7s 31 36 mph 1014.1mb 58f 59f
4:50 12ft 10s 7s 29 38 mph 1014.2mb 58f 59f
3:50 12ft 8s 7s 29 34 mph 1013.8mb 58f 59f
2:50 12.5ft 9s 7s 29 38 mph 1013.9mb 59f 59f
1:50 13.5ft 10s 7s 34 40 mph 1014.1mb 59f 59f
12:50 15ft 10s 7s 31 40 mph 1014.3mb 59f 59f
11:50 14ft 10s 7s 31 40 mph 1014.3mb 60f 59f
10:50 14.5ft 10s 7s 34 40 mph 1014.4mb 60f 58f
9:50 14.5ft 10s 7s 34 40 mph 1014.7mb 60f 59f
8:50 15ft 10s  -  31 40 mph 1014.7mb 60f 59f
7:50 15ft 10s 7s 31 38 mph 1014.7mb 60f 59f
6:50 13ft 11s 7s 31 40 mph 1014.5mb 60f 59f
5:50 14ft 11s 7s 31 40 mph 1014.1mb 60f 59f
4:50 13.5ft 11s 7s 31 40 mph 1013.9mb 60f 59f
3:50 13ft 11s 7s 34 40 mph 1013.8mb 60f 60f
2:50 13ft 10s 7s 31 38 mph 1013.8mb 60f 60f
1:50 13ft 10s 7s 31 40 mph 1014.3mb 60f 60f
12:50 12.5ft 9s 7s 31 36 mph 1014.6mb 60f 62f
jeu. 09/21 11:50 12ft 9s 7s 29 36 mph 1014.7mb 60f 63f
10:50 12ft 10s 7s 27 34 mph 1015mb 60f 63f
9:50 12ft 9s 7s 27 31 mph 1015.7mb 60f 63f
8:50 11ft 9s 7s 25 29 mph 1015.7mb 60f 63f
7:50 11.5ft 10s 7s 20 25 mph 1015.9mb 60f 63f
6:50 11ft 10s 7s 22 25 mph 1015.2mb 60f 63f
5:50 11ft 10s 7s 22 29 mph 1015.1mb 60f 64f
4:50 10.5ft 11s 7s 25 29 mph 1015.2mb 60f 64f
3:50 11ft 9s 7s 25 29 mph 1015mb 60f 64f
2:50 10ft 9s 6s 29 34 mph 1014.8mb 60f 65f
1:50 11.5ft 9s 7s 29 36 mph 1014.5mb 60f 64f
12:50 11.5ft 9s 7s 29 36 mph 1014.8mb 60f 63f
11:50 11ft 9s 6s 29 34 mph 1014.9mb 60f 63f
10:50 11.5ft 9s 7s 29 36 mph 1014.8mb 60f 63f
9:50 11ft 8s 6s 29 36 mph 1014.5mb 60f 63f
8:50 10ft 8s 6s 31 36 mph 1013.8mb 60f 64f
7:50 10ft 7s 6s 27 31 mph 1013.7mb 60f 64f
6:50 9.5ft 9s 6s 29 34 mph 1012.9mb 60f 64f